createdAt,value
2018-12-03T00:00:16.208Z,99.90
2018-12-03T00:02:44.362Z,99.90
2018-12-03T00:05:12.464Z,99.90
2018-12-03T00:07:40.582Z,99.90
2018-12-03T00:10:09.309Z,99.90
2018-12-03T00:12:37.499Z,99.90
2018-12-03T00:15:06.861Z,99.90
2018-12-03T00:17:35.240Z,99.90
2018-12-03T00:20:03.381Z,99.90
2018-12-03T00:22:31.525Z,99.90
2018-12-03T00:24:59.700Z,99.90
2018-12-03T00:27:27.846Z,99.90
2018-12-03T00:29:55.940Z,99.90
2018-12-03T00:32:24.088Z,99.90
2018-12-03T00:34:52.200Z,99.90
2018-12-03T00:37:20.571Z,99.90
2018-12-03T00:39:48.980Z,99.90
2018-12-03T00:42:17.096Z,99.90
2018-12-03T00:44:45.249Z,99.90
2018-12-03T00:47:13.393Z,99.90
2018-12-03T00:49:41.977Z,99.90
2018-12-03T00:52:10.088Z,99.90
2018-12-03T00:54:38.195Z,99.90
2018-12-03T00:57:07.136Z,99.90
2018-12-03T00:59:35.265Z,99.90
2018-12-03T01:02:03.364Z,99.90
2018-12-03T01:04:31.512Z,99.90
2018-12-03T01:06:59.640Z,99.90
2018-12-03T01:09:27.751Z,99.90
2018-12-03T01:11:55.908Z,99.90
2018-12-03T01:14:24.072Z,99.90
2018-12-03T01:16:52.183Z,99.90
2018-12-03T01:19:20.294Z,99.70
2018-12-03T01:21:48.463Z,99.70
2018-12-03T01:24:16.588Z,99.80
2018-12-03T01:26:44.696Z,99.90
2018-12-03T01:29:12.867Z,99.90
2018-12-03T01:31:40.988Z,99.90
2018-12-03T01:34:09.098Z,99.90
2018-12-03T01:36:37.509Z,99.90
2018-12-03T01:39:08.208Z,99.90
2018-12-03T01:41:36.565Z,99.90
2018-12-03T01:44:05.176Z,99.70
2018-12-03T01:46:33.293Z,99.80
2018-12-03T01:49:01.415Z,99.80
2018-12-03T01:51:29.582Z,99.90
2018-12-03T01:53:57.692Z,99.90
2018-12-03T01:56:25.808Z,99.90
2018-12-03T01:58:53.981Z,99.90
2018-12-03T02:01:22.088Z,99.70
2018-12-03T02:03:50.564Z,99.90
2018-12-03T02:06:18.704Z,99.60
2018-12-03T02:08:46.801Z,99.70
2018-12-03T02:11:15.197Z,99.60
2018-12-03T02:13:43.357Z,99.60
2018-12-03T02:16:11.456Z,99.60
2018-12-03T02:18:39.598Z,99.70
2018-12-03T02:21:07.804Z,99.80
2018-12-03T02:23:35.948Z,99.90
2018-12-03T02:26:04.432Z,99.90
2018-12-03T02:28:32.576Z,99.90
2018-12-03T02:31:00.726Z,99.90
2018-12-03T02:33:28.892Z,99.90
2018-12-03T02:35:57.053Z,99.90
2018-12-03T02:38:25.185Z,99.90
2018-12-03T02:40:53.520Z,99.90
2018-12-03T02:43:21.706Z,99.90
2018-12-03T02:45:49.844Z,99.90
2018-12-03T02:48:18.060Z,99.90
2018-12-03T02:50:46.246Z,99.90
2018-12-03T02:53:14.377Z,99.90
2018-12-03T02:55:42.495Z,99.90
2018-12-03T02:58:10.675Z,99.90
2018-12-03T03:00:39.660Z,99.90
2018-12-03T03:03:07.793Z,99.90
2018-12-03T03:05:36.044Z,99.90
2018-12-03T03:08:04.184Z,99.90
2018-12-03T03:10:32.307Z,99.90
2018-12-03T03:13:00.492Z,99.90
2018-12-03T03:15:28.675Z,99.90
2018-12-03T03:17:56.827Z,99.90
2018-12-03T03:20:25.011Z,99.90
2018-12-03T03:22:53.194Z,99.90
2018-12-03T03:25:21.361Z,99.90
2018-12-03T03:27:49.500Z,99.90
2018-12-03T03:30:17.670Z,99.90
2018-12-03T03:32:45.781Z,99.90
2018-12-03T03:35:14.565Z,99.90
2018-12-03T03:37:42.763Z,99.90
2018-12-03T03:40:13.334Z,99.60
2018-12-03T03:42:42.097Z,99.90
2018-12-03T03:45:12.289Z,99.90
2018-12-03T03:47:40.422Z,99.80
2018-12-03T03:50:09.041Z,99.40
2018-12-03T03:52:37.495Z,99.20
2018-12-03T03:55:06.050Z,98.80
2018-12-03T03:57:34.189Z,98.70
2018-12-03T04:00:02.338Z,98.90
2018-12-03T04:02:30.588Z,99.10
2018-12-03T04:04:58.773Z,99.20
2018-12-03T04:07:27.020Z,99.20
2018-12-03T04:09:55.212Z,99.20
2018-12-03T04:12:23.459Z,99.40
2018-12-03T04:14:51.600Z,99.40
2018-12-03T04:17:19.737Z,99.50
2018-12-03T04:19:47.866Z,99.70
2018-12-03T04:22:16.097Z,99.90
2018-12-03T04:24:44.260Z,99.90
2018-12-03T04:27:12.421Z,99.90
2018-12-03T04:29:40.593Z,99.90
2018-12-03T04:32:08.746Z,99.90
2018-12-03T04:34:36.929Z,99.90
2018-12-03T04:37:05.289Z,99.90
2018-12-03T04:39:33.434Z,99.90
2018-12-03T04:42:01.693Z,99.80
2018-12-03T04:44:29.802Z,99.90
2018-12-03T04:46:57.945Z,99.80
2018-12-03T04:49:26.480Z,99.90
2018-12-03T04:51:54.634Z,99.90
2018-12-03T04:54:22.745Z,99.90
2018-12-03T04:56:50.912Z,99.90
2018-12-03T04:59:19.080Z,99.90
2018-12-03T05:01:47.260Z,99.80
2018-12-03T05:04:15.439Z,99.60
2018-12-03T05:06:43.559Z,99.30
2018-12-03T05:09:11.689Z,99.30
2018-12-03T05:11:39.825Z,99.30
2018-12-03T05:14:08.028Z,99.30
2018-12-03T05:16:36.280Z,99.00
2018-12-03T05:19:04.804Z,98.70
2018-12-03T05:21:32.969Z,98.60
2018-12-03T05:24:04.308Z,98.70
2018-12-03T05:26:29.289Z,98.80
2018-12-03T05:28:57.446Z,98.90
2018-12-03T05:31:25.600Z,98.90
2018-12-03T05:33:54.137Z,99.10
2018-12-03T05:36:22.275Z,99.30
2018-12-03T05:38:50.434Z,99.70
2018-12-03T05:41:18.593Z,99.90
2018-12-03T05:43:46.738Z,99.90
2018-12-03T05:46:14.908Z,99.90
2018-12-03T05:48:43.069Z,99.90
2018-12-03T05:51:11.228Z,99.90
2018-12-03T05:53:39.480Z,99.90
2018-12-03T05:56:08.092Z,99.90
2018-12-03T05:58:36.205Z,99.90
2018-12-03T06:01:04.329Z,99.90
2018-12-03T06:03:32.491Z,99.90
2018-12-03T06:06:00.656Z,99.90
2018-12-03T06:08:28.760Z,99.90
2018-12-03T06:10:57.713Z,99.90
2018-12-03T06:13:25.865Z,99.90
2018-12-03T06:15:53.985Z,99.90
2018-12-03T06:18:22.153Z,99.90
2018-12-03T06:20:50.317Z,99.90
2018-12-03T06:23:18.471Z,99.90
2018-12-03T06:25:46.670Z,99.90
2018-12-03T06:28:14.797Z,99.90
2018-12-03T06:30:42.984Z,99.90
2018-12-03T06:33:11.146Z,99.90
2018-12-03T06:35:39.289Z,99.90
2018-12-03T06:38:07.440Z,99.90
2018-12-03T06:40:35.656Z,99.90
2018-12-03T06:43:03.770Z,99.90
2018-12-03T06:45:32.272Z,99.90
2018-12-03T06:48:09.431Z,99.90
2018-12-03T06:50:37.605Z,99.90
2018-12-03T06:53:05.849Z,99.90
2018-12-03T06:55:33.992Z,99.90
2018-12-03T06:58:02.240Z,99.90
2018-12-03T07:00:30.376Z,99.90
2018-12-03T07:02:58.512Z,99.80
2018-12-03T07:05:26.697Z,99.60
2018-12-03T07:07:56.494Z,99.60
2018-12-03T07:10:25.361Z,99.60
2018-12-03T07:12:55.220Z,99.50
2018-12-03T07:15:23.368Z,99.30
2018-12-03T07:17:54.095Z,99.40
2018-12-03T07:20:22.260Z,99.20
2018-12-03T07:22:50.401Z,99.20
2018-12-03T07:25:18.556Z,99.20
2018-12-03T07:27:46.753Z,99.20
2018-12-03T07:30:19.375Z,99.50
2018-12-03T07:32:48.479Z,99.10
2018-12-03T07:35:17.454Z,99.30
2018-12-03T07:37:45.713Z,99.30
2018-12-03T07:40:14.109Z,99.50
2018-12-03T07:42:42.901Z,99.40
2018-12-03T07:45:15.310Z,99.40
2018-12-03T07:47:43.469Z,99.80
2018-12-03T07:50:12.737Z,99.80
2018-12-03T07:53:12.985Z,99.90
2018-12-03T07:55:40.442Z,99.90
2018-12-03T07:58:08.028Z,99.90
2018-12-03T08:00:35.653Z,99.90
2018-12-03T08:03:03.133Z,99.90
2018-12-03T08:05:30.617Z,99.90
2018-12-03T08:07:58.134Z,99.90
2018-12-03T08:10:25.682Z,99.90
2018-12-03T08:12:53.140Z,99.90
2018-12-03T08:15:20.700Z,99.90
2018-12-03T08:17:48.179Z,99.90
2018-12-03T08:20:15.722Z,99.90
2018-12-03T08:22:43.277Z,99.90
2018-12-03T08:25:10.738Z,99.90
2018-12-03T08:27:38.307Z,99.90
2018-12-03T08:30:08.022Z,99.90
2018-12-03T08:32:35.465Z,99.90
2018-12-03T08:35:03.118Z,99.90
2018-12-03T08:37:30.545Z,99.60
2018-12-03T08:39:58.017Z,99.50
2018-12-03T08:42:25.460Z,99.20
2018-12-03T08:44:52.958Z,99.10
2018-12-03T08:47:20.404Z,99.00
2018-12-03T08:49:48.268Z,98.80
2018-12-03T08:52:15.917Z,98.40
2018-12-03T08:54:43.410Z,98.00
2018-12-03T08:57:11.220Z,97.90
2018-12-03T08:59:38.709Z,97.50
2018-12-03T09:02:06.274Z,97.40
2018-12-03T09:04:33.748Z,97.60
2018-12-03T09:07:01.412Z,97.20
2018-12-03T09:09:28.852Z,97.50
2018-12-03T09:11:56.416Z,97.60
2018-12-03T09:14:25.840Z,97.90
2018-12-03T09:16:53.322Z,98.00
2018-12-03T09:19:20.828Z,98.50
2018-12-03T09:21:48.285Z,98.60
2018-12-03T09:24:15.714Z,98.70
2018-12-03T09:26:43.182Z,98.50
2018-12-03T09:29:10.776Z,98.50
2018-12-03T09:31:38.282Z,98.60
2018-12-03T09:34:05.814Z,98.60
2018-12-03T09:36:33.274Z,98.70
2018-12-03T09:39:01.121Z,98.80
2018-12-03T09:41:28.869Z,98.90
2018-12-03T09:43:56.412Z,99.10
2018-12-03T09:46:23.841Z,99.30
2018-12-03T09:48:54.944Z,99.40
2018-12-03T09:51:26.225Z,99.40
2018-12-03T09:53:53.693Z,99.50
2018-12-03T09:56:25.687Z,99.60
2018-12-03T09:58:53.150Z,99.00
2018-12-03T10:01:20.713Z,99.20
2018-12-03T10:03:48.276Z,99.20
2018-12-03T10:06:15.695Z,98.70
2018-12-03T10:08:43.158Z,98.50
2018-12-03T10:11:10.618Z,98.60
2018-12-03T10:13:38.041Z,98.50
2018-12-03T10:16:05.537Z,98.50
2018-12-03T10:18:33.099Z,98.50
2018-12-03T10:21:00.673Z,98.20
2018-12-03T10:23:28.183Z,98.30
2018-12-03T10:25:55.645Z,98.00
2018-12-03T10:28:23.151Z,98.30
2018-12-03T10:30:50.793Z,98.30
2018-12-03T10:33:18.397Z,98.40
2018-12-03T10:35:46.014Z,97.90
2018-12-03T10:38:13.545Z,97.40
2018-12-03T10:40:41.041Z,97.50
2018-12-03T10:43:08.705Z,97.60
2018-12-03T10:45:36.245Z,97.70
2018-12-03T10:48:03.808Z,97.70
2018-12-03T10:50:31.377Z,97.70
2018-12-03T10:52:58.988Z,97.50
2018-12-03T10:55:26.491Z,97.20
2018-12-03T10:57:53.979Z,97.20
2018-12-03T11:00:23.760Z,96.90
2018-12-03T11:02:56.953Z,96.80
2018-12-03T11:05:39.140Z,96.90
2018-12-03T11:08:06.703Z,96.60
2018-12-03T11:10:34.265Z,96.60
2018-12-03T11:13:01.925Z,95.90
2018-12-03T11:15:29.599Z,95.90
2018-12-03T11:17:57.081Z,95.70
2018-12-03T11:20:24.612Z,95.60
2018-12-03T11:22:52.362Z,95.40
2018-12-03T11:25:20.122Z,95.10
2018-12-03T11:27:47.848Z,95.40
2018-12-03T11:30:15.455Z,95.30
2018-12-03T11:32:43.036Z,95.20
2018-12-03T11:35:10.583Z,95.00
2018-12-03T11:37:38.093Z,95.20
2018-12-03T11:40:11.368Z,95.20
2018-12-03T11:42:38.829Z,94.90
2018-12-03T11:45:08.358Z,94.50
2018-12-03T11:47:35.985Z,94.20
2018-12-03T11:50:05.481Z,94.30
2018-12-03T11:52:32.939Z,94.50
2018-12-03T11:55:00.433Z,94.10
2018-12-03T11:57:27.928Z,94.10
2018-12-03T11:59:55.380Z,94.20
2018-12-03T12:02:22.942Z,94.40
2018-12-03T12:04:50.392Z,94.80
2018-12-03T12:07:17.821Z,95.00
2018-12-03T12:09:45.306Z,95.10
2018-12-03T12:12:12.752Z,95.30
2018-12-03T12:14:40.208Z,95.50
2018-12-03T12:17:07.745Z,95.80
2018-12-03T12:19:35.248Z,95.90
2018-12-03T12:22:02.800Z,95.90
2018-12-03T12:24:30.277Z,95.80
2018-12-03T12:26:57.809Z,96.00
2018-12-03T12:29:25.236Z,96.10
2018-12-03T12:31:53.134Z,96.10
2018-12-03T12:34:20.594Z,93.50
2018-12-03T12:36:48.026Z,93.60
2018-12-03T12:39:15.503Z,93.80
2018-12-03T12:41:43.101Z,93.90
2018-12-03T12:44:10.622Z,94.00
2018-12-03T12:46:38.185Z,94.50
2018-12-03T12:49:05.666Z,94.50
2018-12-03T12:51:33.221Z,94.60
2018-12-03T12:54:00.749Z,94.80
2018-12-03T12:56:28.224Z,94.70
2018-12-03T12:58:55.676Z,95.20
2018-12-03T13:01:23.804Z,95.70
2018-12-03T13:03:51.230Z,96.10
2018-12-03T13:06:19.075Z,96.60
2018-12-03T13:08:46.720Z,97.10
2018-12-03T13:11:14.221Z,97.30
2018-12-03T13:13:41.743Z,97.70
2018-12-03T13:16:09.265Z,98.00
2018-12-03T13:18:36.758Z,98.00
2018-12-03T13:21:04.530Z,98.30
2018-12-03T13:23:32.192Z,98.50
2018-12-03T13:25:59.658Z,98.20
2018-12-03T13:28:27.133Z,98.10
2018-12-03T13:30:54.660Z,98.30
2018-12-03T13:33:22.161Z,98.50
2018-12-03T13:35:49.728Z,98.20
2018-12-03T13:38:17.361Z,98.40
2018-12-03T13:40:44.780Z,98.50
2018-12-03T13:43:12.447Z,98.60
2018-12-03T13:45:39.927Z,98.70
2018-12-03T13:48:07.452Z,98.60
2018-12-03T13:50:35.230Z,98.70
2018-12-03T13:53:02.705Z,98.90
2018-12-03T13:55:30.855Z,98.90
2018-12-03T13:57:58.409Z,98.90
2018-12-03T14:00:26.818Z,98.70
2018-12-03T14:02:54.279Z,98.50
2018-12-03T14:05:21.776Z,98.70
2018-12-03T14:07:49.270Z,98.70
2018-12-03T14:10:18.466Z,98.50
2018-12-03T14:12:46.123Z,98.60
2018-12-03T14:15:16.670Z,98.40
2018-12-03T14:17:44.217Z,98.40
2018-12-03T14:20:11.785Z,98.40
2018-12-03T14:22:39.269Z,98.40
2018-12-03T14:25:07.013Z,98.40
2018-12-03T14:27:34.569Z,98.40
2018-12-03T14:30:02.112Z,98.20
2018-12-03T14:32:29.649Z,98.30
2018-12-03T14:34:57.086Z,98.30
2018-12-03T14:37:24.688Z,98.20
2018-12-03T14:39:52.248Z,98.10
2018-12-03T14:42:19.700Z,98.10
2018-12-03T14:44:47.141Z,97.90
2018-12-03T14:47:14.743Z,98.00
2018-12-03T14:49:42.274Z,98.10
2018-12-03T14:52:10.674Z,98.20
2018-12-03T14:54:38.414Z,98.10
2018-12-03T14:57:05.924Z,98.20
2018-12-03T14:59:33.349Z,98.10
2018-12-03T15:02:00.885Z,98.00
2018-12-03T15:04:28.351Z,98.10
2018-12-03T15:06:55.921Z,98.20
2018-12-03T15:09:23.385Z,98.30
2018-12-03T15:12:03.363Z,98.50
2018-12-03T15:14:30.880Z,98.60
2018-12-03T15:16:58.411Z,98.70
2018-12-03T15:19:26.091Z,98.80
2018-12-03T15:21:53.858Z,98.90
2018-12-03T15:24:21.313Z,99.00
2018-12-03T15:26:48.781Z,99.00
2018-12-03T15:29:16.340Z,99.10
2018-12-03T15:31:43.812Z,99.20
2018-12-03T15:34:11.396Z,99.20
2018-12-03T15:36:38.909Z,99.10
2018-12-03T15:39:07.000Z,99.10
2018-12-03T15:41:34.459Z,98.80
2018-12-03T15:44:01.998Z,98.70
2018-12-03T15:46:29.630Z,98.60
2018-12-03T15:48:57.100Z,98.70
2018-12-03T15:51:24.627Z,98.90
2018-12-03T15:53:52.130Z,98.70
2018-12-03T15:56:19.689Z,98.90
2018-12-03T15:58:47.181Z,98.70
2018-12-03T16:01:14.697Z,98.60
2018-12-03T16:03:42.242Z,98.80
2018-12-03T16:06:09.922Z,98.70
2018-12-03T16:08:37.385Z,98.90
2018-12-03T16:11:04.846Z,99.00
2018-12-03T16:13:32.582Z,98.90
2018-12-03T16:16:00.041Z,99.00
2018-12-03T16:18:27.498Z,99.10
2018-12-03T16:20:55.004Z,99.50
2018-12-03T16:23:22.458Z,99.00
2018-12-03T16:25:49.989Z,99.10
2018-12-03T16:28:17.457Z,99.00
2018-12-03T16:30:44.901Z,99.10
2018-12-03T16:33:12.462Z,99.00
2018-12-03T16:35:39.996Z,99.10
2018-12-03T16:38:07.421Z,99.10
2018-12-03T16:40:34.934Z,99.20
2018-12-03T16:43:02.386Z,99.20
2018-12-03T16:45:29.953Z,99.10
2018-12-03T16:47:57.801Z,99.00
2018-12-03T16:50:25.289Z,99.00
2018-12-03T16:52:52.717Z,99.00
2018-12-03T16:55:20.269Z,99.00
2018-12-03T16:57:47.744Z,99.20
2018-12-03T17:00:15.301Z,98.90
2018-12-03T17:02:43.159Z,98.90
2018-12-03T17:05:10.722Z,98.90
2018-12-03T17:07:38.191Z,99.00
2018-12-03T17:10:07.712Z,98.70
2018-12-03T17:12:35.150Z,98.80
2018-12-03T17:15:02.601Z,98.60
2018-12-03T17:17:30.161Z,98.30
2018-12-03T17:19:57.722Z,98.20
2018-12-03T17:22:25.378Z,98.20
2018-12-03T17:24:52.892Z,98.20
2018-12-03T17:27:20.361Z,98.20
2018-12-03T17:29:47.818Z,97.60
2018-12-03T17:32:15.390Z,97.60
2018-12-03T17:34:48.717Z,97.80
2018-12-03T17:37:12.472Z,98.00
2018-12-03T17:39:39.963Z,98.10
2018-12-03T17:42:07.474Z,98.10
2018-12-03T17:44:34.966Z,98.00
2018-12-03T17:47:02.526Z,98.10
2018-12-03T17:49:29.958Z,98.20
2018-12-03T17:51:58.222Z,98.10
2018-12-03T17:54:25.663Z,98.20
2018-12-03T17:56:53.253Z,98.30
2018-12-03T17:59:20.769Z,98.10
2018-12-03T18:01:48.236Z,98.00
2018-12-03T18:04:15.654Z,97.80
2018-12-03T18:06:43.141Z,97.90
2018-12-03T18:09:10.625Z,97.80
2018-12-03T18:11:38.078Z,97.70
2018-12-03T18:14:05.819Z,97.90
2018-12-03T18:16:33.253Z,98.00
2018-12-03T18:19:00.779Z,98.00
2018-12-03T18:21:28.237Z,98.10
2018-12-03T18:23:55.794Z,98.40
2018-12-03T18:26:23.259Z,98.30
2018-12-03T18:28:50.825Z,98.00
2018-12-03T18:31:18.370Z,98.10
2018-12-03T18:33:45.879Z,98.00
2018-12-03T18:36:13.398Z,97.60
2018-12-03T18:38:40.838Z,97.90
2018-12-03T18:41:08.298Z,97.50
2018-12-03T18:43:35.866Z,97.80
2018-12-03T18:46:03.513Z,97.90
2018-12-03T18:48:31.184Z,97.60
2018-12-03T18:50:58.944Z,97.50
2018-12-03T18:53:26.588Z,97.40
2018-12-03T18:55:54.152Z,97.40
2018-12-03T18:58:21.726Z,97.30
2018-12-03T19:00:49.470Z,97.20
2018-12-03T19:03:16.874Z,97.40
2018-12-03T19:05:44.335Z,97.60
2018-12-03T19:08:11.813Z,98.00
2018-12-03T19:10:39.313Z,97.70
2018-12-03T19:13:06.778Z,97.50
2018-12-03T19:15:34.441Z,97.50
2018-12-03T19:18:01.857Z,97.60
2018-12-03T19:20:29.285Z,97.60
2018-12-03T19:22:56.860Z,97.70
2018-12-03T19:25:24.357Z,97.60
2018-12-03T19:27:51.831Z,97.90
2018-12-03T19:30:19.401Z,97.70
2018-12-03T19:32:46.823Z,97.80
2018-12-03T19:35:14.277Z,97.80
2018-12-03T19:37:41.785Z,97.80
2018-12-03T19:40:09.300Z,97.80
2018-12-03T19:42:36.870Z,98.00
2018-12-03T19:45:04.695Z,97.60
2018-12-03T19:47:32.218Z,97.70
2018-12-03T19:49:59.677Z,97.80
2018-12-03T19:52:27.146Z,97.90
2018-12-03T19:54:54.876Z,97.90
2018-12-03T19:57:22.384Z,97.90
2018-12-03T19:59:49.981Z,97.70
2018-12-03T20:02:17.448Z,97.70
2018-12-03T20:04:50.264Z,97.10
2018-12-03T20:07:17.805Z,97.00
2018-12-03T20:09:45.441Z,97.10
2018-12-03T20:12:12.898Z,96.50
2018-12-03T20:14:40.382Z,95.90
2018-12-03T20:17:07.953Z,96.10
2018-12-03T20:19:35.485Z,95.60
2018-12-03T20:22:04.163Z,95.50
2018-12-03T20:24:31.719Z,94.80
2018-12-03T20:27:00.401Z,94.30
2018-12-03T20:29:28.012Z,94.10
2018-12-03T20:31:59.320Z,93.90
2018-12-03T20:34:26.917Z,94.10
2018-12-03T20:36:57.405Z,94.20
2018-12-03T20:39:28.749Z,93.50
2018-12-03T20:41:57.037Z,93.10
2018-12-03T20:44:24.689Z,93.00
2018-12-03T20:46:53.573Z,93.10
2018-12-03T20:49:21.241Z,92.60
2018-12-03T20:51:48.757Z,92.40
2018-12-03T20:54:16.258Z,92.60
2018-12-03T20:56:43.827Z,92.50
2018-12-03T20:59:11.370Z,92.70
2018-12-03T21:01:38.959Z,92.70
2018-12-03T21:04:06.572Z,92.50
2018-12-03T21:06:34.044Z,92.20
2018-12-03T21:09:01.793Z,92.10
2018-12-03T21:11:29.343Z,92.20
2018-12-03T21:13:56.850Z,92.70
2018-12-03T21:16:24.512Z,92.90
2018-12-03T21:18:51.957Z,93.40
2018-12-03T21:21:19.425Z,92.10
2018-12-03T21:23:46.862Z,91.80
2018-12-03T21:26:14.324Z,91.80
2018-12-03T21:28:42.081Z,91.40
2018-12-03T21:31:09.637Z,91.50
2018-12-03T21:33:37.302Z,91.50
2018-12-03T21:36:04.853Z,91.30
2018-12-03T21:38:32.334Z,90.80
2018-12-03T21:41:00.276Z,90.90
2018-12-03T21:43:27.709Z,90.90
2018-12-03T21:45:55.288Z,91.30
2018-12-03T21:48:22.753Z,91.10
2018-12-03T21:50:50.176Z,91.20
2018-12-03T21:53:17.801Z,91.60
2018-12-03T21:55:45.309Z,91.60
2018-12-03T21:58:12.797Z,91.70
2018-12-03T22:00:40.488Z,91.70
2018-12-03T22:03:07.943Z,91.70
2018-12-03T22:05:35.462Z,91.80
2018-12-03T22:08:03.032Z,91.40
2018-12-03T22:10:30.581Z,91.50
2018-12-03T22:12:58.043Z,91.30
2018-12-03T22:15:25.810Z,91.10
2018-12-03T22:17:53.264Z,91.20
2018-12-03T22:20:20.825Z,91.20
2018-12-03T22:22:48.365Z,91.00
2018-12-03T22:25:16.052Z,91.10
2018-12-03T22:27:43.577Z,91.00
2018-12-03T22:30:11.154Z,91.10
2018-12-03T22:32:38.611Z,91.00
2018-12-03T22:35:06.794Z,90.90
2018-12-03T22:37:34.229Z,91.00
2018-12-03T22:40:01.712Z,90.90
2018-12-03T22:42:29.266Z,90.80
2018-12-03T22:44:56.830Z,90.70
2018-12-03T22:47:24.276Z,90.80
2018-12-03T22:49:51.941Z,91.00
2018-12-03T22:52:19.501Z,91.00
2018-12-03T22:54:46.953Z,90.40
2018-12-03T22:57:14.518Z,90.50
2018-12-03T22:59:41.959Z,90.50
2018-12-03T23:02:09.392Z,90.70
2018-12-03T23:04:38.800Z,91.00
2018-12-03T23:07:06.495Z,90.90
2018-12-03T23:09:33.974Z,90.60
2018-12-03T23:12:01.475Z,90.60
2018-12-03T23:14:28.969Z,90.60
2018-12-03T23:16:56.441Z,90.30
2018-12-03T23:19:23.973Z,90.70
2018-12-03T23:21:51.438Z,90.50
2018-12-03T23:24:18.890Z,90.60
2018-12-03T23:26:46.390Z,90.50
2018-12-03T23:29:13.914Z,90.60
2018-12-03T23:31:41.449Z,90.70
2018-12-03T23:34:08.924Z,90.30
2018-12-03T23:36:36.381Z,90.30
2018-12-03T23:39:06.082Z,90.30
2018-12-03T23:41:33.647Z,90.10
2018-12-03T23:44:01.301Z,90.00
2018-12-03T23:46:28.729Z,89.90
2018-12-03T23:48:56.167Z,90.00
2018-12-03T23:51:23.620Z,90.50
2018-12-03T23:53:51.138Z,90.30
2018-12-03T23:56:18.577Z,90.40
2018-12-03T23:58:46.163Z,90.30
